sensor_id;sensor_type;location;lat;lon;timestamp;temperature;humidity
30047;DHT22;16878;52.542;13.426;2023-02-17T00:01:30;8.70;99.90
30047;DHT22;16878;52.542;13.426;2023-02-17T00:03:56;8.70;99.90
30047;DHT22;16878;52.542;13.426;2023-02-17T00:06:25;8.70;99.90
30047;DHT22;16878;52.542;13.426;2023-02-17T00:08:51;8.70;99.90
30047;DHT22;16878;52.542;13.426;2023-02-17T00:11:18;8.70;99.90
30047;DHT22;16878;52.542;13.426;2023-02-17T00:13:47;8.60;99.90
30047;DHT22;16878;52.542;13.426;2023-02-17T00:16:18;8.60;99.90
30047;DHT22;16878;52.542;13.426;2023-02-17T00:18:45;8.60;99.90
30047;DHT22;16878;52.542;13.426;2023-02-17T00:21:17;8.60;99.90
30047;DHT22;16878;52.542;13.426;2023-02-17T00:23:46;8.50;99.90
30047;DHT22;16878;52.542;13.426;2023-02-17T00:26:13;8.50;99.90
30047;DHT22;16878;52.542;13.426;2023-02-17T00:28:40;8.50;99.90
30047;DHT22;16878;52.542;13.426;2023-02-17T00:31:07;8.50;99.90
30047;DHT22;16878;52.542;13.426;2023-02-17T00:33:34;8.50;99.90
30047;DHT22;16878;52.542;13.426;2023-02-17T00:36:03;8.50;99.90
30047;DHT22;16878;52.542;13.426;2023-02-17T00:38:29;8.50;99.90
30047;DHT22;16878;52.542;13.426;2023-02-17T00:40:54;8.40;99.90
30047;DHT22;16878;52.542;13.426;2023-02-17T00:43:20;8.40;99.90
30047;DHT22;16878;52.542;13.426;2023-02-17T00:45:46;8.40;99.90
30047;DHT22;16878;52.542;13.426;2023-02-17T00:48:11;8.40;99.90
30047;DHT22;16878;52.542;13.426;2023-02-17T00:50:37;8.40;99.90
30047;DHT22;16878;52.542;13.426;2023-02-17T00:53:03;8.40;99.90
30047;DHT22;16878;52.542;13.426;2023-02-17T00:55:28;8.40;99.90
30047;DHT22;16878;52.542;13.426;2023-02-17T00:57:54;8.40;99.90
30047;DHT22;16878;52.542;13.426;2023-02-17T01:00:20;8.40;99.90
30047;DHT22;16878;52.542;13.426;2023-02-17T01:02:45;8.40;99.90
30047;DHT22;16878;52.542;13.426;2023-02-17T01:05:11;8.40;99.90
30047;DHT22;16878;52.542;13.426;2023-02-17T01:07:37;8.40;99.90
30047;DHT22;16878;52.542;13.426;2023-02-17T01:10:04;8.40;99.90
30047;DHT22;16878;52.542;13.426;2023-02-17T01:12:30;8.40;99.90
30047;DHT22;16878;52.542;13.426;2023-02-17T01:14:56;8.40;99.90
30047;DHT22;16878;52.542;13.426;2023-02-17T01:17:21;8.40;99.90
30047;DHT22;16878;52.542;13.426;2023-02-17T01:19:47;8.40;99.90
30047;DHT22;16878;52.542;13.426;2023-02-17T01:22:13;8.40;99.90
30047;DHT22;16878;52.542;13.426;2023-02-17T01:24:39;8.30;99.90
30047;DHT22;16878;52.542;13.426;2023-02-17T01:27:04;8.40;99.90
30047;DHT22;16878;52.542;13.426;2023-02-17T01:29:30;8.40;99.90
30047;DHT22;16878;52.542;13.426;2023-02-17T01:31:56;8.40;99.90
30047;DHT22;16878;52.542;13.426;2023-02-17T01:34:22;8.40;99.90
30047;DHT22;16878;52.542;13.426;2023-02-17T01:36:47;8.40;99.90
30047;DHT22;16878;52.542;13.426;2023-02-17T01:39:14;8.40;99.90
30047;DHT22;16878;52.542;13.426;2023-02-17T01:41:41;8.40;99.90
30047;DHT22;16878;52.542;13.426;2023-02-17T01:46:34;8.40;99.90
30047;DHT22;16878;52.542;13.426;2023-02-17T01:49:08;8.40;99.90
30047;DHT22;16878;52.542;13.426;2023-02-17T01:51:36;8.40;99.90
30047;DHT22;16878;52.542;13.426;2023-02-17T01:54:14;8.40;99.90
30047;DHT22;16878;52.542;13.426;2023-02-17T01:56:43;8.40;99.90
30047;DHT22;16878;52.542;13.426;2023-02-17T01:59:15;8.40;99.90
30047;DHT22;16878;52.542;13.426;2023-02-17T02:01:41;8.40;99.90
30047;DHT22;16878;52.542;13.426;2023-02-17T02:04:07;8.40;99.90
30047;DHT22;16878;52.542;13.426;2023-02-17T02:06:35;8.40;99.90
30047;DHT22;16878;52.542;13.426;2023-02-17T02:09:06;8.40;99.90
30047;DHT22;16878;52.542;13.426;2023-02-17T02:11:34;8.40;99.90
30047;DHT22;16878;52.542;13.426;2023-02-17T02:14:02;8.40;99.90
30047;DHT22;16878;52.542;13.426;2023-02-17T02:19:10;8.40;99.90
30047;DHT22;16878;52.542;13.426;2023-02-17T02:34:19;8.20;99.90
30047;DHT22;16878;52.542;13.426;2023-02-17T02:36:20;8.20;99.90
30047;DHT22;16878;52.542;13.426;2023-02-17T02:39:00;8.20;99.90
30047;DHT22;16878;52.542;13.426;2023-02-17T02:41:41;8.20;99.90
30047;DHT22;16878;52.542;13.426;2023-02-17T02:44:09;8.10;99.90
30047;DHT22;16878;52.542;13.426;2023-02-17T02:46:35;8.10;99.90
30047;DHT22;16878;52.542;13.426;2023-02-17T02:49:01;8.00;99.90
30047;DHT22;16878;52.542;13.426;2023-02-17T02:51:54;8.00;99.90
30047;DHT22;16878;52.542;13.426;2023-02-17T02:54:37;8.00;99.90
30047;DHT22;16878;52.542;13.426;2023-02-17T02:57:14;8.00;99.90
30047;DHT22;16878;52.542;13.426;2023-02-17T03:00:09;8.00;99.90
30047;DHT22;16878;52.542;13.426;2023-02-17T03:02:50;8.00;99.90
30047;DHT22;16878;52.542;13.426;2023-02-17T03:06:25;8.00;99.90
30047;DHT22;16878;52.542;13.426;2023-02-17T03:08:25;8.00;99.90
30047;DHT22;16878;52.542;13.426;2023-02-17T03:10:53;8.00;99.90
30047;DHT22;16878;52.542;13.426;2023-02-17T03:13:20;8.00;99.90
30047;DHT22;16878;52.542;13.426;2023-02-17T03:15:47;7.90;99.90
30047;DHT22;16878;52.542;13.426;2023-02-17T03:18:13;7.90;99.90
30047;DHT22;16878;52.542;13.426;2023-02-17T03:20:53;8.00;99.90
30047;DHT22;16878;52.542;13.426;2023-02-17T03:23:19;7.90;99.90
30047;DHT22;16878;52.542;13.426;2023-02-17T03:25:45;8.00;99.90
30047;DHT22;16878;52.542;13.426;2023-02-17T03:28:12;8.00;99.90
30047;DHT22;16878;52.542;13.426;2023-02-17T03:30:38;7.90;99.90
30047;DHT22;16878;52.542;13.426;2023-02-17T03:33:04;7.90;99.90
30047;DHT22;16878;52.542;13.426;2023-02-17T03:35:30;7.90;99.90
30047;DHT22;16878;52.542;13.426;2023-02-17T03:37:57;7.90;99.90
30047;DHT22;16878;52.542;13.426;2023-02-17T03:40:23;7.90;99.90
30047;DHT22;16878;52.542;13.426;2023-02-17T03:42:48;8.00;99.90
30047;DHT22;16878;52.542;13.426;2023-02-17T03:45:14;8.00;99.90
30047;DHT22;16878;52.542;13.426;2023-02-17T03:47:40;8.00;99.90
30047;DHT22;16878;52.542;13.426;2023-02-17T03:50:06;8.00;99.90
30047;DHT22;16878;52.542;13.426;2023-02-17T03:52:32;7.90;99.90
30047;DHT22;16878;52.542;13.426;2023-02-17T03:54:58;8.00;99.90
30047;DHT22;16878;52.542;13.426;2023-02-17T03:57:24;8.00;99.90
30047;DHT22;16878;52.542;13.426;2023-02-17T03:59:49;8.00;99.90
30047;DHT22;16878;52.542;13.426;2023-02-17T04:02:15;8.00;99.90
30047;DHT22;16878;52.542;13.426;2023-02-17T04:04:41;8.00;99.90
30047;DHT22;16878;52.542;13.426;2023-02-17T04:07:06;8.00;99.90
30047;DHT22;16878;52.542;13.426;2023-02-17T04:09:32;8.00;99.90
30047;DHT22;16878;52.542;13.426;2023-02-17T04:11:58;8.00;99.90
30047;DHT22;16878;52.542;13.426;2023-02-17T04:14:24;8.00;99.90
30047;DHT22;16878;52.542;13.426;2023-02-17T04:16:49;8.00;99.90
30047;DHT22;16878;52.542;13.426;2023-02-17T04:19:15;8.00;99.90
30047;DHT22;16878;52.542;13.426;2023-02-17T04:21:41;8.00;99.90
30047;DHT22;16878;52.542;13.426;2023-02-17T04:24:06;8.00;99.90
30047;DHT22;16878;52.542;13.426;2023-02-17T04:26:32;8.10;99.90
30047;DHT22;16878;52.542;13.426;2023-02-17T04:28:58;8.10;99.90
30047;DHT22;16878;52.542;13.426;2023-02-17T04:31:23;8.10;99.90
30047;DHT22;16878;52.542;13.426;2023-02-17T04:33:50;8.10;99.90
30047;DHT22;16878;52.542;13.426;2023-02-17T04:36:16;8.10;99.90
30047;DHT22;16878;52.542;13.426;2023-02-17T04:38:42;8.10;99.90
30047;DHT22;16878;52.542;13.426;2023-02-17T04:41:07;8.10;99.90
30047;DHT22;16878;52.542;13.426;2023-02-17T04:43:33;8.10;99.90
30047;DHT22;16878;52.542;13.426;2023-02-17T04:45:59;8.10;99.90
30047;DHT22;16878;52.542;13.426;2023-02-17T04:48:25;8.10;99.90
30047;DHT22;16878;52.542;13.426;2023-02-17T04:50:51;8.10;99.90
30047;DHT22;16878;52.542;13.426;2023-02-17T04:53:17;8.10;99.90
30047;DHT22;16878;52.542;13.426;2023-02-17T04:55:43;8.10;99.90
30047;DHT22;16878;52.542;13.426;2023-02-17T04:58:09;8.10;99.90
30047;DHT22;16878;52.542;13.426;2023-02-17T05:00:35;8.20;99.90
30047;DHT22;16878;52.542;13.426;2023-02-17T05:03:01;8.20;99.90
30047;DHT22;16878;52.542;13.426;2023-02-17T05:05:26;8.20;99.90
30047;DHT22;16878;52.542;13.426;2023-02-17T05:07:52;8.20;99.90
30047;DHT22;16878;52.542;13.426;2023-02-17T05:10:18;8.20;99.90
30047;DHT22;16878;52.542;13.426;2023-02-17T05:12:44;8.20;99.90
30047;DHT22;16878;52.542;13.426;2023-02-17T05:15:11;8.20;99.90
30047;DHT22;16878;52.542;13.426;2023-02-17T05:17:37;8.20;99.90
30047;DHT22;16878;52.542;13.426;2023-02-17T05:20:03;8.20;99.90
30047;DHT22;16878;52.542;13.426;2023-02-17T05:22:29;8.20;99.90
30047;DHT22;16878;52.542;13.426;2023-02-17T05:24:55;8.20;99.90
30047;DHT22;16878;52.542;13.426;2023-02-17T05:27:20;8.20;99.90
30047;DHT22;16878;52.542;13.426;2023-02-17T05:29:46;8.20;99.90
30047;DHT22;16878;52.542;13.426;2023-02-17T05:32:12;8.20;99.90
30047;DHT22;16878;52.542;13.426;2023-02-17T05:34:38;8.20;99.90
30047;DHT22;16878;52.542;13.426;2023-02-17T05:37:04;8.20;99.90
30047;DHT22;16878;52.542;13.426;2023-02-17T05:39:29;8.20;99.90
30047;DHT22;16878;52.542;13.426;2023-02-17T05:41:55;8.20;99.90
30047;DHT22;16878;52.542;13.426;2023-02-17T05:44:21;8.20;99.90
30047;DHT22;16878;52.542;13.426;2023-02-17T05:46:46;8.20;99.90
30047;DHT22;16878;52.542;13.426;2023-02-17T05:49:12;8.20;99.90
30047;DHT22;16878;52.542;13.426;2023-02-17T05:51:38;8.30;99.90
30047;DHT22;16878;52.542;13.426;2023-02-17T05:54:04;8.30;99.90
30047;DHT22;16878;52.542;13.426;2023-02-17T05:56:31;8.30;99.90
30047;DHT22;16878;52.542;13.426;2023-02-17T05:58:56;8.30;99.90
30047;DHT22;16878;52.542;13.426;2023-02-17T06:01:28;8.30;99.90
30047;DHT22;16878;52.542;13.426;2023-02-17T06:03:54;8.30;99.90
30047;DHT22;16878;52.542;13.426;2023-02-17T06:06:20;8.30;99.90
30047;DHT22;16878;52.542;13.426;2023-02-17T06:08:46;8.30;99.90
30047;DHT22;16878;52.542;13.426;2023-02-17T06:11:11;8.30;99.90
30047;DHT22;16878;52.542;13.426;2023-02-17T06:13:37;8.20;99.90
30047;DHT22;16878;52.542;13.426;2023-02-17T06:16:03;8.30;99.90
30047;DHT22;16878;52.542;13.426;2023-02-17T06:18:29;8.20;99.90
30047;DHT22;16878;52.542;13.426;2023-02-17T06:20:55;8.20;99.90
30047;DHT22;16878;52.542;13.426;2023-02-17T06:23:23;8.20;99.90
30047;DHT22;16878;52.542;13.426;2023-02-17T06:25:48;8.20;99.90
30047;DHT22;16878;52.542;13.426;2023-02-17T06:28:14;8.20;99.90
30047;DHT22;16878;52.542;13.426;2023-02-17T06:30:40;8.30;99.90
30047;DHT22;16878;52.542;13.426;2023-02-17T06:33:05;8.30;99.90
30047;DHT22;16878;52.542;13.426;2023-02-17T06:35:31;8.30;99.90
30047;DHT22;16878;52.542;13.426;2023-02-17T06:37:57;8.30;99.90
30047;DHT22;16878;52.542;13.426;2023-02-17T06:40:23;8.30;99.90
30047;DHT22;16878;52.542;13.426;2023-02-17T06:42:48;8.30;99.90
30047;DHT22;16878;52.542;13.426;2023-02-17T06:45:15;8.40;99.90
30047;DHT22;16878;52.542;13.426;2023-02-17T06:47:41;8.40;99.90
30047;DHT22;16878;52.542;13.426;2023-02-17T06:50:07;8.40;99.90
30047;DHT22;16878;52.542;13.426;2023-02-17T06:52:35;8.40;99.90
30047;DHT22;16878;52.542;13.426;2023-02-17T06:55:01;8.40;99.90
30047;DHT22;16878;52.542;13.426;2023-02-17T06:57:27;8.40;99.90
30047;DHT22;16878;52.542;13.426;2023-02-17T06:59:53;8.40;99.90
30047;DHT22;16878;52.542;13.426;2023-02-17T07:02:18;8.50;99.90
30047;DHT22;16878;52.542;13.426;2023-02-17T07:04:44;8.50;99.90
30047;DHT22;16878;52.542;13.426;2023-02-17T07:07:10;8.50;99.90
30047;DHT22;16878;52.542;13.426;2023-02-17T07:09:37;8.60;99.90
30047;DHT22;16878;52.542;13.426;2023-02-17T07:12:03;8.60;99.90
30047;DHT22;16878;52.542;13.426;2023-02-17T07:14:31;8.70;99.90
30047;DHT22;16878;52.542;13.426;2023-02-17T07:16:57;8.70;99.90
30047;DHT22;16878;52.542;13.426;2023-02-17T07:19:23;8.70;99.90
30047;DHT22;16878;52.542;13.426;2023-02-17T07:21:49;8.70;99.90
30047;DHT22;16878;52.542;13.426;2023-02-17T07:24:14;8.80;99.90
30047;DHT22;16878;52.542;13.426;2023-02-17T07:26:40;8.80;99.90
30047;DHT22;16878;52.542;13.426;2023-02-17T07:29:06;8.80;99.90
30047;DHT22;16878;52.542;13.426;2023-02-17T07:31:33;8.80;99.90
30047;DHT22;16878;52.542;13.426;2023-02-17T07:34:00;8.80;99.90
30047;DHT22;16878;52.542;13.426;2023-02-17T07:36:26;8.90;99.90
30047;DHT22;16878;52.542;13.426;2023-02-17T07:38:51;8.90;99.90
30047;DHT22;16878;52.542;13.426;2023-02-17T07:41:22;8.90;99.90
30047;DHT22;16878;52.542;13.426;2023-02-17T07:43:53;9.00;99.90
30047;DHT22;16878;52.542;13.426;2023-02-17T07:46:19;9.00;99.90
30047;DHT22;16878;52.542;13.426;2023-02-17T07:48:45;9.00;99.90
30047;DHT22;16878;52.542;13.426;2023-02-17T07:51:14;9.10;99.90
30047;DHT22;16878;52.542;13.426;2023-02-17T07:53:40;9.10;99.90
30047;DHT22;16878;52.542;13.426;2023-02-17T07:56:08;9.20;99.90
30047;DHT22;16878;52.542;13.426;2023-02-17T07:58:36;9.20;99.90
30047;DHT22;16878;52.542;13.426;2023-02-17T08:01:09;9.20;99.90
30047;DHT22;16878;52.542;13.426;2023-02-17T08:03:35;9.30;99.90
30047;DHT22;16878;52.542;13.426;2023-02-17T08:06:08;9.30;99.90
30047;DHT22;16878;52.542;13.426;2023-02-17T08:08:34;9.30;99.90
30047;DHT22;16878;52.542;13.426;2023-02-17T08:11:21;9.30;99.90
30047;DHT22;16878;52.542;13.426;2023-02-17T08:14:06;9.30;99.90
30047;DHT22;16878;52.542;13.426;2023-02-17T08:16:31;9.30;99.90
30047;DHT22;16878;52.542;13.426;2023-02-17T08:18:57;9.30;99.90
30047;DHT22;16878;52.542;13.426;2023-02-17T08:21:26;9.30;99.90
30047;DHT22;16878;52.542;13.426;2023-02-17T08:23:53;9.30;99.90
30047;DHT22;16878;52.542;13.426;2023-02-17T08:26:20;9.30;99.90
30047;DHT22;16878;52.542;13.426;2023-02-17T08:28:49;9.30;99.90
30047;DHT22;16878;52.542;13.426;2023-02-17T08:31:16;9.30;99.90
30047;DHT22;16878;52.542;13.426;2023-02-17T08:33:43;9.30;99.90
30047;DHT22;16878;52.542;13.426;2023-02-17T08:36:09;9.30;99.90
30047;DHT22;16878;52.542;13.426;2023-02-17T08:38:37;9.40;99.90
30047;DHT22;16878;52.542;13.426;2023-02-17T08:41:23;9.40;99.90
30047;DHT22;16878;52.542;13.426;2023-02-17T08:43:50;9.40;99.90
30047;DHT22;16878;52.542;13.426;2023-02-17T08:46:17;9.40;99.90
30047;DHT22;16878;52.542;13.426;2023-02-17T08:48:43;9.40;99.90
30047;DHT22;16878;52.542;13.426;2023-02-17T08:51:14;9.40;99.90
30047;DHT22;16878;52.542;13.426;2023-02-17T08:53:41;9.40;99.90
30047;DHT22;16878;52.542;13.426;2023-02-17T08:56:07;9.50;99.90
30047;DHT22;16878;52.542;13.426;2023-02-17T08:58:33;9.50;99.90
30047;DHT22;16878;52.542;13.426;2023-02-17T09:00:59;9.50;99.90
30047;DHT22;16878;52.542;13.426;2023-02-17T09:03:25;9.60;99.90
30047;DHT22;16878;52.542;13.426;2023-02-17T09:05:55;9.70;99.90
30047;DHT22;16878;52.542;13.426;2023-02-17T09:08:21;9.70;99.90
30047;DHT22;16878;52.542;13.426;2023-02-17T09:10:51;9.70;99.90
30047;DHT22;16878;52.542;13.426;2023-02-17T09:13:17;9.70;99.90
30047;DHT22;16878;52.542;13.426;2023-02-17T09:15:44;9.80;99.90
30047;DHT22;16878;52.542;13.426;2023-02-17T09:18:10;9.80;99.90
30047;DHT22;16878;52.542;13.426;2023-02-17T09:20:36;9.80;99.90
30047;DHT22;16878;52.542;13.426;2023-02-17T09:23:04;9.80;99.90
30047;DHT22;16878;52.542;13.426;2023-02-17T09:25:30;9.80;99.90
30047;DHT22;16878;52.542;13.426;2023-02-17T09:27:56;9.80;99.90
30047;DHT22;16878;52.542;13.426;2023-02-17T09:30:21;9.80;99.90
30047;DHT22;16878;52.542;13.426;2023-02-17T09:32:47;9.80;99.90
30047;DHT22;16878;52.542;13.426;2023-02-17T09:35:17;9.80;99.90
30047;DHT22;16878;52.542;13.426;2023-02-17T09:37:43;9.90;99.90
30047;DHT22;16878;52.542;13.426;2023-02-17T09:42:44;10.00;99.90
30047;DHT22;16878;52.542;13.426;2023-02-17T09:45:18;10.00;99.90
30047;DHT22;16878;52.542;13.426;2023-02-17T09:48:00;10.00;99.90
30047;DHT22;16878;52.542;13.426;2023-02-17T09:50:38;10.00;99.90
30047;DHT22;16878;52.542;13.426;2023-02-17T09:53:20;10.00;99.90
30047;DHT22;16878;52.542;13.426;2023-02-17T09:55:52;10.00;99.90
30047;DHT22;16878;52.542;13.426;2023-02-17T09:58:54;9.90;99.90
30047;DHT22;16878;52.542;13.426;2023-02-17T10:01:27;9.90;99.90
30047;DHT22;16878;52.542;13.426;2023-02-17T10:06:46;9.90;99.90
30047;DHT22;16878;52.542;13.426;2023-02-17T10:17:02;9.80;99.90
30047;DHT22;16878;52.542;13.426;2023-02-17T10:19:31;9.90;99.90
30047;DHT22;16878;52.542;13.426;2023-02-17T10:22:19;9.90;99.90
30047;DHT22;16878;52.542;13.426;2023-02-17T10:24:45;9.90;99.90
30047;DHT22;16878;52.542;13.426;2023-02-17T10:33:34;9.90;99.90
30047;DHT22;16878;52.542;13.426;2023-02-17T10:38:51;10.00;99.90
30047;DHT22;16878;52.542;13.426;2023-02-17T10:41:23;10.00;99.90
30047;DHT22;16878;52.542;13.426;2023-02-17T10:43:50;10.00;99.90
30047;DHT22;16878;52.542;13.426;2023-02-17T10:46:18;10.00;99.90
30047;DHT22;16878;52.542;13.426;2023-02-17T10:48:48;10.10;99.90
30047;DHT22;16878;52.542;13.426;2023-02-17T10:51:17;10.10;99.90
30047;DHT22;16878;52.542;13.426;2023-02-17T10:53:47;10.10;99.90
30047;DHT22;16878;52.542;13.426;2023-02-17T10:59:27;10.20;99.90
30047;DHT22;16878;52.542;13.426;2023-02-17T11:02:11;10.30;99.90
30047;DHT22;16878;52.542;13.426;2023-02-17T11:04:43;10.20;99.90
30047;DHT22;16878;52.542;13.426;2023-02-17T11:07:11;10.20;99.90
30047;DHT22;16878;52.542;13.426;2023-02-17T11:09:49;10.20;99.90
30047;DHT22;16878;52.542;13.426;2023-02-17T11:12:21;10.20;99.90
30047;DHT22;16878;52.542;13.426;2023-02-17T11:14:52;10.20;99.90
30047;DHT22;16878;52.542;13.426;2023-02-17T11:17:36;10.30;99.90
30047;DHT22;16878;52.542;13.426;2023-02-17T11:20:27;10.30;99.90
30047;DHT22;16878;52.542;13.426;2023-02-17T11:23:02;10.30;99.90
30047;DHT22;16878;52.542;13.426;2023-02-17T11:25:30;10.30;99.90
30047;DHT22;16878;52.542;13.426;2023-02-17T11:27:59;10.40;99.90
30047;DHT22;16878;52.542;13.426;2023-02-17T11:30:27;10.40;99.90
30047;DHT22;16878;52.542;13.426;2023-02-17T11:32:54;10.50;99.90
30047;DHT22;16878;52.542;13.426;2023-02-17T11:38:11;10.50;99.90
30047;DHT22;16878;52.542;13.426;2023-02-17T11:40:37;10.50;99.90
30047;DHT22;16878;52.542;13.426;2023-02-17T11:43:04;10.50;99.90
30047;DHT22;16878;52.542;13.426;2023-02-17T11:45:41;10.50;99.90
30047;DHT22;16878;52.542;13.426;2023-02-17T11:50:52;10.50;99.90
30047;DHT22;16878;52.542;13.426;2023-02-17T11:56:17;10.50;99.90
30047;DHT22;16878;52.542;13.426;2023-02-17T12:02:10;10.50;99.90
30047;DHT22;16878;52.542;13.426;2023-02-17T12:07:39;10.50;99.90
30047;DHT22;16878;52.542;13.426;2023-02-17T12:15:38;10.60;99.90
30047;DHT22;16878;52.542;13.426;2023-02-17T12:21:11;10.70;99.90
30047;DHT22;16878;52.542;13.426;2023-02-17T12:33:05;10.80;99.90
30047;DHT22;16878;52.542;13.426;2023-02-17T12:35:49;10.90;99.90
30047;DHT22;16878;52.542;13.426;2023-02-17T12:38:23;10.90;99.90
30047;DHT22;16878;52.542;13.426;2023-02-17T12:41:12;11.00;99.90
30047;DHT22;16878;52.542;13.426;2023-02-17T12:43:49;11.10;99.90
30047;DHT22;16878;52.542;13.426;2023-02-17T12:46:26;11.10;99.90
30047;DHT22;16878;52.542;13.426;2023-02-17T12:48:58;11.20;99.90
30047;DHT22;16878;52.542;13.426;2023-02-17T12:51:31;11.20;99.90
30047;DHT22;16878;52.542;13.426;2023-02-17T12:54:21;11.20;99.90
30047;DHT22;16878;52.542;13.426;2023-02-17T13:01:59;11.30;99.90
30047;DHT22;16878;52.542;13.426;2023-02-17T13:04:26;11.20;99.90
30047;DHT22;16878;52.542;13.426;2023-02-17T13:07:01;11.20;99.90
30047;DHT22;16878;52.542;13.426;2023-02-17T13:09:40;11.20;99.90
30047;DHT22;16878;52.542;13.426;2023-02-17T13:14:45;11.20;99.90
30047;DHT22;16878;52.542;13.426;2023-02-17T13:17:25;11.20;99.90
30047;DHT22;16878;52.542;13.426;2023-02-17T13:20:25;11.20;99.90
30047;DHT22;16878;52.542;13.426;2023-02-17T13:23:03;11.30;99.90
30047;DHT22;16878;52.542;13.426;2023-02-17T13:25:32;11.30;99.90
30047;DHT22;16878;52.542;13.426;2023-02-17T13:27:59;11.30;99.90
30047;DHT22;16878;52.542;13.426;2023-02-17T13:30:45;11.30;99.90
30047;DHT22;16878;52.542;13.426;2023-02-17T13:35:46;11.40;99.90
30047;DHT22;16878;52.542;13.426;2023-02-17T13:38:12;11.40;99.90
30047;DHT22;16878;52.542;13.426;2023-02-17T13:40:39;11.40;99.90
30047;DHT22;16878;52.542;13.426;2023-02-17T13:43:15;11.40;99.90
30047;DHT22;16878;52.542;13.426;2023-02-17T13:45:42;11.50;99.90
30047;DHT22;16878;52.542;13.426;2023-02-17T13:48:13;11.50;99.90
30047;DHT22;16878;52.542;13.426;2023-02-17T13:50:56;11.50;99.90
30047;DHT22;16878;52.542;13.426;2023-02-17T13:55:52;11.40;99.90
30047;DHT22;16878;52.542;13.426;2023-02-17T13:58:33;11.40;99.90
30047;DHT22;16878;52.542;13.426;2023-02-17T14:01:04;11.50;99.90
30047;DHT22;16878;52.542;13.426;2023-02-17T14:06:08;11.50;99.90
30047;DHT22;16878;52.542;13.426;2023-02-17T14:08:38;11.50;99.90
30047;DHT22;16878;52.542;13.426;2023-02-17T14:11:12;11.50;99.90
30047;DHT22;16878;52.542;13.426;2023-02-17T14:13:41;11.50;99.90
30047;DHT22;16878;52.542;13.426;2023-02-17T14:16:29;11.60;99.90
30047;DHT22;16878;52.542;13.426;2023-02-17T14:19:18;11.60;99.90
30047;DHT22;16878;52.542;13.426;2023-02-17T14:21:57;11.60;99.90
30047;DHT22;16878;52.542;13.426;2023-02-17T14:24:33;11.70;99.90
30047;DHT22;16878;52.542;13.426;2023-02-17T14:27:04;11.70;99.90
30047;DHT22;16878;52.542;13.426;2023-02-17T14:29:48;11.70;99.90
30047;DHT22;16878;52.542;13.426;2023-02-17T14:32:31;11.80;99.90
30047;DHT22;16878;52.542;13.426;2023-02-17T14:37:40;11.80;99.90
30047;DHT22;16878;52.542;13.426;2023-02-17T14:40:17;11.80;99.90
30047;DHT22;16878;52.542;13.426;2023-02-17T14:42:45;11.80;99.90
30047;DHT22;16878;52.542;13.426;2023-02-17T14:45:11;11.80;99.90
30047;DHT22;16878;52.542;13.426;2023-02-17T14:47:37;11.80;99.90
30047;DHT22;16878;52.542;13.426;2023-02-17T14:50:02;11.80;99.90
30047;DHT22;16878;52.542;13.426;2023-02-17T14:52:28;11.80;99.90
30047;DHT22;16878;52.542;13.426;2023-02-17T14:54:54;11.70;99.90
30047;DHT22;16878;52.542;13.426;2023-02-17T14:57:25;11.70;99.90
30047;DHT22;16878;52.542;13.426;2023-02-17T14:59:55;11.70;99.90
30047;DHT22;16878;52.542;13.426;2023-02-17T15:02:22;11.60;99.90
30047;DHT22;16878;52.542;13.426;2023-02-17T15:04:48;11.60;99.90
30047;DHT22;16878;52.542;13.426;2023-02-17T15:07:18;11.60;99.90
30047;DHT22;16878;52.542;13.426;2023-02-17T15:09:45;11.50;99.90
30047;DHT22;16878;52.542;13.426;2023-02-17T15:12:21;11.50;99.90
30047;DHT22;16878;52.542;13.426;2023-02-17T15:14:47;11.50;99.90
30047;DHT22;16878;52.542;13.426;2023-02-17T15:17:13;11.40;99.90
30047;DHT22;16878;52.542;13.426;2023-02-17T15:19:39;11.50;99.90
30047;DHT22;16878;52.542;13.426;2023-02-17T15:22:06;11.50;99.90
30047;DHT22;16878;52.542;13.426;2023-02-17T15:24:33;11.50;99.90
30047;DHT22;16878;52.542;13.426;2023-02-17T15:27:01;11.40;99.90
30047;DHT22;16878;52.542;13.426;2023-02-17T15:29:27;11.40;99.90
30047;DHT22;16878;52.542;13.426;2023-02-17T15:31:54;11.40;99.90
30047;DHT22;16878;52.542;13.426;2023-02-17T15:34:25;11.40;99.90
30047;DHT22;16878;52.542;13.426;2023-02-17T15:36:51;11.30;99.90
30047;DHT22;16878;52.542;13.426;2023-02-17T15:39:18;11.30;99.90
30047;DHT22;16878;52.542;13.426;2023-02-17T15:41:47;11.30;99.90
30047;DHT22;16878;52.542;13.426;2023-02-17T15:44:22;11.30;99.90
30047;DHT22;16878;52.542;13.426;2023-02-17T15:46:51;11.30;99.90
30047;DHT22;16878;52.542;13.426;2023-02-17T15:49:17;11.20;99.90
30047;DHT22;16878;52.542;13.426;2023-02-17T15:51:43;11.30;99.90
30047;DHT22;16878;52.542;13.426;2023-02-17T15:54:09;11.20;99.90
30047;DHT22;16878;52.542;13.426;2023-02-17T15:56:41;11.20;99.90
30047;DHT22;16878;52.542;13.426;2023-02-17T15:59:22;11.20;99.90
30047;DHT22;16878;52.542;13.426;2023-02-17T16:01:49;11.20;99.90
30047;DHT22;16878;52.542;13.426;2023-02-17T16:04:20;11.20;99.90
30047;DHT22;16878;52.542;13.426;2023-02-17T16:06:46;11.20;99.90
30047;DHT22;16878;52.542;13.426;2023-02-17T16:09:12;11.20;99.90
30047;DHT22;16878;52.542;13.426;2023-02-17T16:11:48;11.20;99.90
30047;DHT22;16878;52.542;13.426;2023-02-17T16:14:32;11.30;99.90
30047;DHT22;16878;52.542;13.426;2023-02-17T16:16:58;11.20;99.90
30047;DHT22;16878;52.542;13.426;2023-02-17T16:19:28;11.20;99.90
30047;DHT22;16878;52.542;13.426;2023-02-17T16:22:15;11.20;99.90
30047;DHT22;16878;52.542;13.426;2023-02-17T16:24:41;11.20;99.90
30047;DHT22;16878;52.542;13.426;2023-02-17T16:27:13;11.30;99.90
30047;DHT22;16878;52.542;13.426;2023-02-17T16:29:40;11.30;99.90
30047;DHT22;16878;52.542;13.426;2023-02-17T16:32:06;11.30;99.90
30047;DHT22;16878;52.542;13.426;2023-02-17T16:34:32;11.30;99.90
30047;DHT22;16878;52.542;13.426;2023-02-17T16:37:02;11.30;99.90
30047;DHT22;16878;52.542;13.426;2023-02-17T16:39:28;11.40;99.90
30047;DHT22;16878;52.542;13.426;2023-02-17T16:41:54;11.40;99.90
30047;DHT22;16878;52.542;13.426;2023-02-17T16:44:21;11.40;99.90
30047;DHT22;16878;52.542;13.426;2023-02-17T16:46:52;11.40;99.90
30047;DHT22;16878;52.542;13.426;2023-02-17T16:52:12;11.40;99.90
30047;DHT22;16878;52.542;13.426;2023-02-17T16:54:43;11.40;99.90
30047;DHT22;16878;52.542;13.426;2023-02-17T16:57:15;11.50;99.90
30047;DHT22;16878;52.542;13.426;2023-02-17T16:59:43;11.40;99.90
30047;DHT22;16878;52.542;13.426;2023-02-17T17:02:10;11.40;99.90
30047;DHT22;16878;52.542;13.426;2023-02-17T17:04:36;11.40;99.90
30047;DHT22;16878;52.542;13.426;2023-02-17T17:07:02;11.40;99.90
30047;DHT22;16878;52.542;13.426;2023-02-17T17:09:28;11.30;99.90
30047;DHT22;16878;52.542;13.426;2023-02-17T17:11:55;11.30;99.90
30047;DHT22;16878;52.542;13.426;2023-02-17T17:14:21;11.20;99.90